Terminal Aerodrome Forecast
Issued by NWS Twin Cities, MN

Home | Current Version | Previous Version | Text Only | Print | Product List | Glossary Off
Versions: 1 2 3 4 5 6 7 8 9 10 11 12 13 14 15 16

000
FTUS43 KMPX 232300
TAFEAU
TAF
KEAU 232331Z 2400/2424 35006KT P6SM FEW050
     FM240100 03003KT P6SM SKC
     FM240900 00000KT 3SM BR SKC
      TEMPO 2410/2412 1/2SM FG VV002
     FM241300 16005KT P6SM SCT250
     FM241800 18007KT P6SM SCT250=

USA.gov is the U.S. government's official web portal to all federal, state and local government web resources and services.